Home > Products > Valid Products > TAF

000
FTUS43 KAPX 051727
TAFAPN
TAF
KAPN 051727Z 0518/0618 35008KT P6SM FEW090
     FM060400 00000KT P6SM SKC
     FM061500 22006KT P6SM BKN200=



000
FTUS43 KAPX 051727
TAFTVC
TAF
KTVC 051727Z 0518/0618 01005KT P6SM FEW040
     FM060100 VRB03KT P6SM FEW250
     FM061500 22010G15KT P6SM BKN200=



000
FTUS43 KAPX 051727
TAFPLN
TAF
KPLN 051727Z 0518/0618 27006KT P6SM FEW050
     FM060200 00000KT P6SM FEW250
     FM061500 22006KT P6SM BKN200=



000
FTUS43 KAPX 051357 AAC
TAFTVC
TAF AMD
KTVC 051357Z 0514/0612 03005KT P6SM SCT040
     FM051600 35005KT P6SM SCT040
     FM060100 VRB03KT P6SM FEW250=



000
FTUS43 KAPX 051356 AAC
TAFPLN
TAF AMD
KPLN 051356Z 0514/0612 32006KT P6SM BKN005
     FM051430 34006KT P6SM SCT020
     FM060200 00000KT P6SM FEW250=



000
FTUS43 KAPX 051258 AAC
TAFAPN
TAF AMD
KAPN 051258Z 0513/0612 35008KT P6SM SCT090
     FM060400 00000KT P6SM SKC=



000
FTUS43 KAPX 051258 AAC
TAFAPN
TAF AMD
KAPN 051258Z 0513/0612 35008KT P6SM SCT090
     FM060400 00000KT P6SM SKC=



000
FTUS43 KAPX 051146 AAB
TAFAPN
TAF AMD
KAPN 051146Z 0512/0612 32005KT P6SM OVC004
     FM051400 35006KT P6SM SCT090
     FM060400 00000KT P6SM SKC=



000
FTUS43 KAPX 051146 AAB
TAFPLN
TAF AMD
KPLN 051146Z 0512/0612 35006KT P6SM BKN008
      TEMPO 0512/0514 SCT010
     FM051400 34006KT P6SM SCT020
     FM060200 00000KT P6SM FEW250=



000
FTUS43 KAPX 051146 AAB
TAFTVC
TAF AMD
KTVC 051146Z 0512/0612 36005KT P6SM BKN015
     FM051500 35005KT P6SM BKN040
     FM051600 35005KT P6SM SCT040
     FM060100 VRB03KT P6SM FEW250=



000
FTUS43 KAPX 051124 AAA
TAFPLN
TAF AMD
KPLN 051124Z 0511/0612 35006KT P6SM SKC
      TEMPO 0512/0514 SCT010
     FM051400 34006KT P6SM SCT020
     FM060200 00000KT P6SM FEW250=



000
FTUS43 KAPX 051124 AAA
TAFAPN
TAF AMD
KAPN 051124Z 0511/0612 32005KT P6SM OVC004
     FM051400 35006KT P6SM SCT090
     FM060400 00000KT P6SM SKC=



000
FTUS43 KAPX 051124 AAA
TAFTVC
TAF AMD
KTVC 051124Z 0511/0612 36005KT P6SM BKN015
     FM051500 35005KT P6SM BKN040
     FM051600 35005KT P6SM SCT040
     FM060100 VRB03KT P6SM FEW250=



000
FTUS43 KAPX 051123
TAFTVC
TAF
KTVC 051123Z 0512/0612 36005KT P6SM BKN015
     FM051500 35005KT P6SM BKN040
     FM051600 35005KT P6SM SCT040
     FM060100 VRB03KT P6SM FEW250=



000
FTUS43 KAPX 051123
TAFPLN
TAF
KPLN 051123Z 0512/0612 35006KT P6SM BKN010
      TEMPO 0512/0514 SCT010
     FM051400 34006KT P6SM SCT020
     FM060200 00000KT P6SM FEW250=



000
FTUS43 KAPX 051123
TAFAPN
TAF
KAPN 051123Z 0512/0612 32005KT P6SM SKC
     FM051400 35006KT P6SM SCT090
     FM060400 00000KT P6SM SKC=



000
FTUS43 KAPX 051010 AAA
TAFAPN
TAF AMD
KAPN 051010Z 0510/0606 35007KT P6SM BKN004
     FM051400 36005KT P6SM SCT022
     FM051800 35010KT P6SM SCT040
     FM060100 VRB03KT P6SM FEW100 SCT250=



000
FTUS43 KAPX 051010 AAA
TAFAPN
TAF AMD
KAPN 051010Z 0510/0606 35007KT P6SM BKN004
     FM051400 36005KT P6SM SCT022
     FM051800 35010KT P6SM SCT040
     FM060100 VRB03KT P6SM FEW100 SCT250=



000
FTUS43 KAPX 050922 AAA
TAFPLN
TAF AMD
KPLN 050922Z 0509/0606 36005KT P6SM SCT050
      TEMPO 0509/0512 3SM BR
     FM051400 34007KT P6SM SCT025
     FM051900 30009KT P6SM FEW120
     FM060100 VRB03KT P6SM SCT090 SCT250=



000
FTUS43 KAPX 050656 AAA
TAFTVC
TAF AMD
KTVC 050656Z 0507/0606 35006KT P6SM OVC026
      TEMPO 0507/0511 OVC019
     FM051400 36007KT P6SM SCT025
     FM051600 02008KT P6SM FEW250
     FM060100 00000KT P6SM SCT100 SCT250=



000
FTUS43 KAPX 050520
TAFAPN
TAF
KAPN 050520Z 0506/0606 35007KT P6SM SCT009 BKN050
     FM051400 36005KT P6SM SCT022
     FM051800 35010KT P6SM SCT040
     FM060100 VRB03KT P6SM FEW100 SCT250=



000
FTUS43 KAPX 050520
TAFTVC
TAF
KTVC 050520Z 0506/0606 35006KT P6SM OVC026
     FM051400 36007KT P6SM SCT025
     FM051600 02008KT P6SM FEW250
     FM060100 00000KT P6SM SCT100 SCT250=



000
FTUS43 KAPX 050520
TAFPLN
TAF
KPLN 050520Z 0506/0606 36005KT P6SM SCT021 OVC050
      TEMPO 0509/0512 3SM BR
     FM051400 34007KT P6SM SCT025
     FM051900 30009KT P6SM FEW120
     FM060100 VRB03KT P6SM SCT090 SCT250=



000
FTUS43 KAPX 050351 AAB
TAFTVC
TAF AMD
KTVC 050351Z 0504/0524 36009KT P6SM VCSH SCT015 OVC035
     FM050600 35006KT P6SM BKN015
     FM051400 36007KT P6SM SCT022
     FM051600 02008KT P6SM FEW250=



000
FTUS43 KAPX 050351 AAB
TAFTVC
TAF AMD
KTVC 050351Z 0504/0524 36009KT P6SM VCSH SCT015 OVC035
     FM050600 35006KT P6SM BKN015
     FM051400 36007KT P6SM SCT022
     FM051600 02008KT P6SM FEW250=



000
FTUS43 KAPX 050350 AAA
TAFPLN
TAF AMD
KPLN 050350Z 0504/0524 36008KT P6SM BKN021 OVC035
     FM050600 36005KT P6SM SCT021 OVC030
      TEMPO 0509/0512 3SM BR
     FM051400 34007KT P6SM SCT025
     FM051900 30009KT P6SM FEW120=



000
FTUS43 KAPX 050244 AAB
TAFAPN
TAF AMD
KAPN 050244Z 0503/0524 34008KT P6SM SCT008 BKN070
     FM050900 35005KT P6SM BKN009 OVC050
     FM051400 36005KT P6SM BKN025
     FM051700 35009KT P6SM SCT035=



000
FTUS43 KAPX 050240 AAA
TAFTVC
TAF AMD
KTVC 050240Z 0503/0524 36009KT P6SM VCSH SCT015 OVC030
     FM050500 35006KT P6SM BKN015
     FM051400 36007KT P6SM SCT022
     FM051600 02008KT P6SM FEW250=



000
FTUS43 KAPX 050240 AAA
TAFTVC
TAF AMD
KTVC 050240Z 0503/0524 36009KT P6SM VCSH SCT015 OVC030
     FM050500 35006KT P6SM BKN015
     FM051400 36007KT P6SM SCT022
     FM051600 02008KT P6SM FEW250=



000
FTUS43 KAPX 050130 AAA
TAFAPN
TAF AMD
KAPN 050130Z 0502/0524 34009KT P6SM OVC009
      TEMPO 0502/0503 SCT010 BKN050
     FM050300 36008KT P6SM SCT015 BKN050
     FM050600 35005KT P6SM BKN015 OVC050
     FM051400 36005KT P6SM BKN025
     FM051700 35009KT P6SM SCT035=



000
FTUS43 KAPX 042320
TAFPLN
TAF
KPLN 042320Z 0500/0524 36009KT P6SM FEW025 OVC040
     FM050600 36005KT P6SM SCT015 OVC035
     FM050900 VRB03KT 3SM BR BKN015
     FM051400 34006KT P6SM BKN035
     FM051800 30007KT P6SM FEW120=



000
FTUS43 KAPX 042320
TAFTVC
TAF
KTVC 042320Z 0500/0524 35010G16KT P6SM -SHRA SCT015 OVC030
     FM050200 36011KT P6SM VCSH OVC015
     FM050500 35006KT P6SM OVC015
     FM051400 36007KT P6SM SCT022
     FM051600 02008KT P6SM FEW250=



000
FTUS43 KAPX 042320
TAFAPN
TAF
KAPN 042320Z 0500/0524 34011KT P6SM OVC009
     FM050100 36008KT P6SM SCT015 BKN050
     FM050500 35005KT P6SM BKN015 OVC050
     FM051400 36005KT P6SM BKN025
     FM051700 35009KT P6SM SCT035=



000
FTUS43 KAPX 042320
TAFPLN
TAF
KPLN 042320Z 0500/0524 36009KT P6SM FEW025 OVC040
     FM050600 36005KT P6SM SCT015 OVC035
     FM050900 VRB03KT 3SM BR BKN015
     FM051400 34006KT P6SM BKN035
     FM051800 30007KT P6SM FEW120=



000
FTUS43 KAPX 042320
TAFTVC
TAF
KTVC 042320Z 0500/0524 35010G16KT P6SM -SHRA SCT015 OVC030
     FM050200 36011KT P6SM VCSH OVC015
     FM050500 35006KT P6SM OVC015
     FM051400 36007KT P6SM SCT022
     FM051600 02008KT P6SM FEW250=



000
FTUS43 KAPX 042320
TAFAPN
TAF
KAPN 042320Z 0500/0524 34011KT P6SM OVC009
     FM050100 36008KT P6SM SCT015 BKN050
     FM050500 35005KT P6SM BKN015 OVC050
     FM051400 36005KT P6SM BKN025
     FM051700 35009KT P6SM SCT035=



000
FTUS43 KAPX 042009 AAA
TAFPLN
TAF AMD
KPLN 042009Z 0420/0518 36012KT P6SM -RA OVC026
     FM042200 36009KT P6SM OVC035
     FM050600 36004KT P6SM OVC012
     FM051400 36006KT P6SM BKN025
     FM051600 35007KT P6SM SCT025=



000
FTUS43 KAPX 042005 AAA
TAFTVC
TAF AMD
KTVC 042005Z 0420/0518 35011G19KT P6SM -RA SCT015 OVC028
     FM042300 35011KT P6SM VCSH OVC035
     FM050200 36010KT P6SM OVC015
     FM050500 36005KT P6SM OVC015
     FM051400 36007KT P6SM BKN040
     FM051600 36009KT P6SM SCT040=



000
FTUS43 KAPX 042002 AAA
TAFAPN
TAF AMD
KAPN 042002Z 0420/0518 01013KT P6SM OVC009
     FM042200 01012KT P6SM OVC015
     FM050000 36008KT P6SM OVC050
     FM050500 35005KT P6SM OVC015
     FM051400 36005KT P6SM BKN025=



000
FTUS43 KAPX 041720
TAFTVC
TAF
KTVC 041720Z 0418/0518 35009G16KT P6SM -SHRA OVC009
     FM042000 35011G18KT P6SM -SHRA OVC012
     FM042300 35011KT P6SM VCSH OVC035
     FM050200 36010KT P6SM OVC015
     FM050500 36005KT P6SM OVC015
     FM051400 36007KT P6SM BKN040
     FM051600 36009KT P6SM SCT040=



000
FTUS43 KAPX 041720
TAFAPN
TAF
KAPN 041720Z 0418/0518 01011KT P6SM OVC009
     FM041900 01012KT P6SM OVC015
     FM042200 36008KT P6SM OVC050
     FM050500 35005KT P6SM OVC015
     FM051400 36005KT P6SM BKN025=



000
FTUS43 KAPX 041720
TAFPLN
TAF
KPLN 041720Z 0418/0518 36011KT P6SM VCSH OVC015
     FM042100 36012KT P6SM VCSH OVC018
     FM050100 36009KT P6SM OVC015
     FM050600 36004KT P6SM OVC012
     FM051400 36006KT P6SM BKN025
     FM051600 35007KT P6SM SCT025=



000
FTUS43 KAPX 041538 AAA
TAFTVC
TAF AMD
KTVC 041538Z 0416/0512 36011G17KT P6SM -RA OVC007
     FM041700 33011G17KT P6SM OVC012
     FM042000 34013G22KT P6SM VCSH BKN030
     FM050200 35007KT P6SM BKN040=



000
FTUS43 KAPX 041536 AAB
TAFAPN
TAF AMD
KAPN 041536Z 0416/0512 02009KT P6SM -RA OVC005
     FM041900 36009KT P6SM -SHRA OVC018
     FM050400 34007KT P6SM VCSH BKN025 OVC050=



000
FTUS43 KAPX 041332 AAA
TAFAPN
TAF AMD
KAPN 041332Z 0414/0512 35008G16KT P6SM -RA OVC012
     FM041600 35008KT P6SM -SHRA OVC018
     FM041900 36009KT P6SM -SHRA OVC022
     FM050400 34007KT P6SM VCSH BKN025 OVC050=



000
FTUS43 KAPX 041332 AAA
TAFAPN
TAF AMD
KAPN 041332Z 0414/0512 35008G16KT P6SM -RA OVC012
     FM041600 35008KT P6SM -SHRA OVC018
     FM041900 36009KT P6SM -SHRA OVC022
     FM050400 34007KT P6SM VCSH BKN025 OVC050=



000
FTUS43 KAPX 041330 AAA
TAFPLN
TAF AMD
KPLN 041330Z 0414/0512 36008KT 6SM -RA BR OVC007
     FM041600 35011G20KT P6SM -SHRA OVC018
     FM042000 35013G22KT P6SM VCSH BKN030
     FM050200 35007KT P6SM BKN040=



000
FTUS43 KAPX 041330 AAA
TAFPLN
TAF AMD
KPLN 041330Z 0414/0512 36008KT 6SM -RA BR OVC007
     FM041600 35011G20KT P6SM -SHRA OVC018
     FM042000 35013G22KT P6SM VCSH BKN030
     FM050200 35007KT P6SM BKN040=



000
FTUS43 KAPX 041120
TAFPLN
TAF
KPLN 041120Z 0412/0512 36008KT 6SM -SHRA SCT006 OVC012
     FM041500 35011G20KT P6SM -SHRA BKN015 OVC025
     FM042000 35013G22KT P6SM VCSH BKN030
     FM050200 35007KT P6SM BKN040=



000
FTUS43 KAPX 041120
TAFAPN
TAF
KAPN 041120Z 0412/0512 35006KT P6SM -SHRA BKN008 OVC015
     FM041600 35008KT P6SM -SHRA OVC012
     FM041900 36009KT P6SM -SHRA OVC022
     FM050400 34007KT P6SM VCSH BKN025 OVC050=



000
FTUS43 KAPX 041120
TAFTVC
TAF
KTVC 041120Z 0412/0512 34008KT 6SM -SHRA BKN006 OVC012
     FM041500 34011G20KT P6SM -SHRA BKN015 OVC025
     FM042000 34013G22KT P6SM VCSH BKN030
     FM050200 35007KT P6SM BKN040=



000
FTUS43 KAPX 041120
TAFAPN
TAF
KAPN 041120Z 0412/0512 35006KT P6SM -SHRA BKN008 OVC015
     FM041600 35008KT P6SM -SHRA OVC012
     FM041900 36009KT P6SM -SHRA OVC022
     FM050400 34007KT P6SM VCSH BKN025 OVC050=



000
FTUS43 KAPX 041120
TAFPLN
TAF
KPLN 041120Z 0412/0512 36008KT 6SM -SHRA SCT006 OVC012
     FM041500 35011G20KT P6SM -SHRA BKN015 OVC025
     FM042000 35013G22KT P6SM VCSH BKN030
     FM050200 35007KT P6SM BKN040=



000
FTUS43 KAPX 041120
TAFTVC
TAF
KTVC 041120Z 0412/0512 34008KT 6SM -SHRA BKN006 OVC012
     FM041500 34011G20KT P6SM -SHRA BKN015 OVC025
     FM042000 34013G22KT P6SM VCSH BKN030
     FM050200 35007KT P6SM BKN040=



000
FTUS43 KAPX 041001 AAA
TAFAPN
TAF AMD
KAPN 041001Z 0410/0506 VRB03KT P6SM -SHRA SCT025 OVC040
     FM041300 VRB03KT P6SM -SHRA BKN009 OVC025
     FM041600 35008KT P6SM -SHRA OVC012
     FM041900 36009KT P6SM -SHRA OVC022
     FM050400 34005KT P6SM VCSH BKN025 OVC050=



000
FTUS43 KAPX 040851 AAB
TAFPLN
TAF AMD
KPLN 040851Z 0409/0506 31008KT 6SM -SHRA OVC005
     FM041300 35012KT P6SM VCSH BKN015 OVC030
     FM041800 35013G20KT P6SM BKN035
     FM050200 35009KT P6SM BKN040=



000
FTUS43 KAPX 040851 AAA
TAFTVC
TAF AMD
KTVC 040851Z 0409/0506 34009KT 6SM -SHRA BKN008 OVC015
     FM041400 36011G19KT P6SM OVC015
     FM041700 35015G24KT P6SM BKN028
     FM050300 35008KT P6SM BKN035=



000
FTUS43 KAPX 040851 AAA
TAFTVC
TAF AMD
KTVC 040851Z 0409/0506 34009KT 6SM -SHRA BKN008 OVC015
     FM041400 36011G19KT P6SM OVC015
     FM041700 35015G24KT P6SM BKN028
     FM050300 35008KT P6SM BKN035=



000
FTUS43 KAPX 040653 AAA
TAFPLN
TAF AMD
KPLN 040653Z 0407/0506 31006KT P6SM -SHRA SCT007 OVC015
     FM041300 35012KT P6SM VCSH BKN015 OVC030
     FM041800 35013G20KT P6SM BKN035
     FM050200 35009KT P6SM BKN040=



000
FTUS43 KAPX 040653 AAA
TAFPLN
TAF AMD
KPLN 040653Z 0407/0506 31006KT P6SM -SHRA SCT007 OVC015
     FM041300 35012KT P6SM VCSH BKN015 OVC030
     FM041800 35013G20KT P6SM BKN035
     FM050200 35009KT P6SM BKN040=



000
FTUS43 KAPX 040520
TAFAPN
TAF
KAPN 040520Z 0406/0506 VRB03KT P6SM SCT025 OVC040
     FM041000 VRB03KT P6SM -SHRA BKN009 OVC025
     FM041500 35008KT P6SM -SHRA OVC012
     FM041900 36009KT P6SM -SHRA OVC022
     FM050400 34005KT P6SM VCSH BKN025 OVC050=



000
FTUS43 KAPX 040520
TAFPLN
TAF
KPLN 040520Z 0406/0506 VRB03KT P6SM -SHRA SCT015 OVC040
     FM040800 31006KT P6SM -SHRA OVC007
     FM041300 35012KT P6SM BKN015 OVC030
     FM041800 35013G20KT P6SM BKN035
     FM050200 35009KT P6SM BKN040=



000
FTUS43 KAPX 040520
TAFTVC
TAF
KTVC 040520Z 0406/0506 VRB03KT P6SM -SHRA SCT015 OVC040
     FM040900 32007KT P6SM VCSH BKN008 OVC020
     FM041400 36011G19KT P6SM OVC015
     FM041700 35015G24KT P6SM BKN028
     FM050300 35008KT P6SM BKN035=



000
FTUS43 KAPX 032320
TAFTVC
TAF
KTVC 032320Z 0400/0424 23011KT P6SM VCSH OVC080
     FM040200 23006KT P6SM -SHRA SCT025 OVC050
     FM040500 29004KT P6SM -SHRA SCT008 OVC035
     FM040800 32006KT P6SM OVC008
     FM041400 36011G19KT P6SM OVC015
     FM041900 35015G24KT P6SM OVC025=



000
FTUS43 KAPX 032320
TAFTVC
TAF
KTVC 032320Z 0400/0424 23011KT P6SM VCSH OVC080
     FM040200 23006KT P6SM -SHRA SCT025 OVC050
     FM040500 29004KT P6SM -SHRA SCT008 OVC035
     FM040800 32006KT P6SM OVC008
     FM041400 36011G19KT P6SM OVC015
     FM041900 35015G24KT P6SM OVC025=



000
FTUS43 KAPX 032320
TAFAPN
TAF
KAPN 032320Z 0400/0424 16006KT P6SM OVC100
     FM040400 20004KT P6SM VCSH OVC050
     FM040600 VRB03KT P6SM -SHRA SCT015 OVC035
     FM041100 36004KT P6SM -SHRA OVC009
     FM041500 35008KT P6SM VCSH OVC012
     FM041900 36009KT P6SM BKN022=



000
FTUS43 KAPX 032320
TAFPLN
TAF
KPLN 032320Z 0400/0424 28010KT P6SM VCSH OVC050
     FM040200 22006KT P6SM -SHRA SCT030 OVC050
     FM040800 35005KT P6SM VCSH OVC007
     FM041300 35012KT P6SM OVC015
     FM041800 35013KT P6SM BKN025=



000
FTUS43 KAPX 032320
TAFAPN
TAF
KAPN 032320Z 0400/0424 16006KT P6SM OVC100
     FM040400 20004KT P6SM VCSH OVC050
     FM040600 VRB03KT P6SM -SHRA SCT015 OVC035
     FM041100 36004KT P6SM -SHRA OVC009
     FM041500 35008KT P6SM VCSH OVC012
     FM041900 36009KT P6SM BKN022=



000
FTUS43 KAPX 032320
TAFPLN
TAF
KPLN 032320Z 0400/0424 28010KT P6SM VCSH OVC050
     FM040200 22006KT P6SM -SHRA SCT030 OVC050
     FM040800 35005KT P6SM VCSH OVC007
     FM041300 35012KT P6SM OVC015
     FM041800 35013KT P6SM BKN025=



000
FTUS43 KAPX 031720
TAFPLN
TAF
KPLN 031720Z 0318/0418 24011G17KT P6SM SCT250
     FM032200 21011KT P6SM BKN100
     FM040000 21010KT P6SM VCSH OVC080
     FM040100 21008KT P6SM -SHRA OVC060
     FM040300 23004KT 6SM -SHRA OVC025
     FM040600 28004KT 6SM -SHRA OVC008
     FM040800 35005KT P6SM VCSH OVC008
     FM041300 33009KT P6SM OVC012=



000
FTUS43 KAPX 031720
TAFAPN
TAF
KAPN 031720Z 0318/0418 20009KT P6SM BKN080
     FM032300 17008KT P6SM BKN110
     FM040200 23005KT P6SM BKN080
     FM040400 VRB03KT P6SM VCSH OVC050
     FM040600 VRB03KT 6SM -SHRA OVC025
     FM041300 32006KT 6SM -SHRA OVC007
     FM041700 35007KT P6SM VCSH OVC008=



000
FTUS43 KAPX 031720
TAFPLN
TAF
KPLN 031720Z 0318/0418 24011G17KT P6SM SCT250
     FM032200 21011KT P6SM BKN100
     FM040000 21010KT P6SM VCSH OVC080
     FM040100 21008KT P6SM -SHRA OVC060
     FM040300 23004KT 6SM -SHRA OVC025
     FM040600 28004KT 6SM -SHRA OVC008
     FM040800 35005KT P6SM VCSH OVC008
     FM041300 33009KT P6SM OVC012=



000
FTUS43 KAPX 031720
TAFAPN
TAF
KAPN 031720Z 0318/0418 20009KT P6SM BKN080
     FM032300 17008KT P6SM BKN110
     FM040200 23005KT P6SM BKN080
     FM040400 VRB03KT P6SM VCSH OVC050
     FM040600 VRB03KT 6SM -SHRA OVC025
     FM041300 32006KT 6SM -SHRA OVC007
     FM041700 35007KT P6SM VCSH OVC008=



000
FTUS43 KAPX 031720
TAFTVC
TAF
KTVC 031720Z 0318/0418 25010KT P6SM FEW250
     FM032100 22012KT P6SM BKN130
     FM040100 23011KT P6SM -SHRA OVC090
     FM040400 25004KT 6SM -SHRA OVC025
     FM040600 32004KT 6SM -SHRA OVC012
     FM040800 34006KT P6SM VCSH OVC007=



000
FTUS43 KAPX 031720
TAFTVC
TAF
KTVC 031720Z 0318/0418 25011G17KT P6SM FEW250
     FM032100 22012KT P6SM BKN130
     FM040000 23011KT P6SM VCSH OVC090
     FM040200 23006KT P6SM -SHRA OVC060
     FM040400 26005KT 6SM -SHRA OVC025
     FM040600 32004KT 6SM SHRA OVC008
     FM040800 34006KT P6SM VCSH OVC008
     FM041300 34011G19KT P6SM OVC008
     FM041700 35012G22KT P6SM OVC015=



000
FTUS43 KAPX 031720
TAFAPN
TAF
KAPN 031720Z 0318/0418 18012KT P6SM BKN080
     FM032300 18008KT P6SM BKN120
     FM040400 23004KT P6SM OVC080
     FM040600 VRB03KT 6SM -SHRA OVC025
     FM041100 36004KT 6SM -SHRA OVC010=



000
FTUS43 KAPX 031720
TAFPLN
TAF
KPLN 031720Z 0318/0418 23010KT P6SM SCT250
     FM032200 21011KT P6SM BKN100
     FM040000 21010KT P6SM -SHRA OVC060
     FM040300 23004KT 6SM -SHRA OVC025
     FM040500 28004KT 6SM -SHRA OVC007
     FM040800 33004KT P6SM OVC007=



000
FTUS43 KAPX 031720
TAFTVC
TAF
KTVC 031720Z 0318/0418 25011G17KT P6SM FEW250
     FM032100 22012KT P6SM BKN130
     FM040000 23011KT P6SM VCSH OVC090
     FM040200 23006KT P6SM -SHRA OVC060
     FM040400 26005KT 6SM -SHRA OVC025
     FM040600 32004KT 6SM SHRA OVC008
     FM040800 34006KT P6SM VCSH OVC008
     FM041300 34011G19KT P6SM OVC008
     FM041700 35012G22KT P6SM OVC015=



000
FTUS43 KAPX 031720
TAFAPN
TAF
KAPN 031720Z 0318/0418 18012KT P6SM BKN080
     FM032300 18008KT P6SM BKN120
     FM040400 23004KT P6SM OVC080
     FM040600 VRB03KT 6SM -SHRA OVC025
     FM041100 36004KT 6SM -SHRA OVC010=



000
FTUS43 KAPX 031720
TAFPLN
TAF
KPLN 031720Z 0318/0418 23010KT P6SM SCT250
     FM032200 21011KT P6SM BKN100
     FM040000 21010KT P6SM -SHRA OVC060
     FM040300 23004KT 6SM -SHRA OVC025
     FM040500 28004KT 6SM -SHRA OVC007
     FM040800 33004KT P6SM OVC007=



000
FTUS43 KAPX 031720
TAFTVC
TAF
KTVC 031720Z 0318/0418 25010KT P6SM FEW250
     FM032100 22012KT P6SM BKN130
     FM040100 23011KT P6SM -SHRA OVC090
     FM040400 25004KT 6SM -SHRA OVC025
     FM040600 32004KT 6SM -SHRA OVC012
     FM040800 34006KT P6SM VCSH OVC007=



000
FTUS43 KAPX 031120
TAFPLN
TAF
KPLN 031120Z 0312/0412 23004KT P6SM FEW250
     FM031800 24009KT P6SM BKN150
     FM032200 27005KT P6SM VCSH BKN060
     FM040200 27005KT P6SM -SHRA SCT006 OVC040
     FM040500 30005KT P6SM VCSH BKN006 OVC035=



000
FTUS43 KAPX 031120
TAFAPN
TAF
KAPN 031120Z 0312/0412 24007KT P6SM SCT250
     FM031900 17009KT P6SM BKN180
     FM032300 16007KT P6SM BKN070
     FM040500 33005KT P6SM -SHRA OVC040=



000
FTUS43 KAPX 031120
TAFTVC
TAF
KTVC 031120Z 0312/0412 23007KT P6SM SKC
     FM031800 25010G16KT P6SM BKN180
     FM032300 24008KT P6SM BKN060
     FM040200 27005KT P6SM -SHRA SCT007 OVC040
     FM040500 30005KT P6SM VCSH BKN007 OVC035=



000
FTUS43 KAPX 030520
TAFTVC
TAF
KTVC 030520Z 0306/0406 00000KT P6SM FEW080
     FM031500 23007KT P6SM SKC
     FM031800 25010G16KT P6SM BKN180
     FM032300 24008KT P6SM BKN060
     FM040200 27005KT P6SM -SHRA SCT007 OVC040
     FM040500 30005KT P6SM VCSH BKN007 OVC035=



000
FTUS43 KAPX 030520
TAFPLN
TAF
KPLN 030520Z 0306/0406 00000KT P6SM SKC
     FM031400 23004KT P6SM FEW250
     FM031800 24009KT P6SM BKN150
     FM032200 27005KT P6SM VCSH BKN060
     FM040200 27005KT P6SM -SHRA SCT006 OVC040
     FM040500 30005KT P6SM VCSH BKN006 OVC035=



000
FTUS43 KAPX 030520
TAFAPN
TAF
KAPN 030520Z 0306/0406 00000KT P6SM SKC
     FM031500 24007KT P6SM SCT250
     FM031900 17009KT P6SM BKN180
     FM032300 16007KT P6SM BKN070
     FM040500 33005KT P6SM -SHRA OVC040=



000
FTUS43 KAPX 030520
TAFTVC
TAF
KTVC 030520Z 0306/0406 00000KT P6SM FEW080
     FM031500 23007KT P6SM SKC
     FM031800 25010G16KT P6SM BKN180
     FM032300 24008KT P6SM BKN060
     FM040200 27005KT P6SM -SHRA SCT007 OVC040
     FM040500 30005KT P6SM VCSH BKN007 OVC035=



000
FTUS43 KAPX 030520
TAFPLN
TAF
KPLN 030520Z 0306/0406 00000KT P6SM SKC
     FM031400 23004KT P6SM FEW250
     FM031800 24009KT P6SM BKN150
     FM032200 27005KT P6SM VCSH BKN060
     FM040200 27005KT P6SM -SHRA SCT006 OVC040
     FM040500 30005KT P6SM VCSH BKN006 OVC035=



000
FTUS43 KAPX 030520
TAFAPN
TAF
KAPN 030520Z 0306/0406 00000KT P6SM SKC
     FM031500 24007KT P6SM SCT250
     FM031900 17009KT P6SM BKN180
     FM032300 16007KT P6SM BKN070
     FM040500 33005KT P6SM -SHRA OVC040=



000
FTUS43 KAPX 022325
TAFTVC
TAF
KTVC 022325Z 0300/0324 03005KT P6SM SKC
     FM030300 00000KT P6SM SKC
     FM031500 23007KT P6SM SKC
     FM031800 25010G16KT P6SM BKN180
     FM032300 24008KT P6SM BKN060=



000
FTUS43 KAPX 022325
TAFAPN
TAF
KAPN 022325Z 0300/0324 17005KT P6SM SKC
     FM031500 24007KT P6SM SCT250
     FM031900 17009KT P6SM BKN180
     FM032300 16007KT P6SM BKN070=



000
FTUS43 KAPX 022325
TAFPLN
TAF
KPLN 022325Z 0300/0324 32009KT P6SM SCT070
     FM030200 00000KT P6SM SKC
     FM031400 23004KT P6SM FEW250
     FM031800 24009KT P6SM BKN150
     FM032200 27005KT P6SM VCSH BKN060=



000
FTUS43 KAPX 022325
TAFAPN
TAF
KAPN 022325Z 0300/0324 17005KT P6SM SKC
     FM031500 24007KT P6SM SCT250
     FM031900 17009KT P6SM BKN180
     FM032300 16007KT P6SM BKN070=



000
FTUS43 KAPX 022325
TAFTVC
TAF
KTVC 022325Z 0300/0324 03005KT P6SM SKC
     FM030300 00000KT P6SM SKC
     FM031500 23007KT P6SM SKC
     FM031800 25010G16KT P6SM BKN180
     FM032300 24008KT P6SM BKN060=



000
FTUS43 KAPX 022325
TAFPLN
TAF
KPLN 022325Z 0300/0324 32009KT P6SM SCT070
     FM030200 00000KT P6SM SKC
     FM031400 23004KT P6SM FEW250
     FM031800 24009KT P6SM BKN150
     FM032200 27005KT P6SM VCSH BKN060=



    US Dept of Commerce
    National Oceanic and Atmospheric Administration
    National Weather Service
    1325 East West Highway
    Silver Spring, MD 20910
    Page Author: NWS Internet Services Team
Disclaimer
Information Quality
Credits
Glossary
Privacy Policy
Freedom of Information Act (FOIA)
About Us
Career Opportunities